Time;durP1;ratioP1;P1;durP2;ratioP2;P2;SDS_P1;SDS_P2;PMS_P1;PMS_P2;Temp;Humidity;BMP_temperature;BMP_pressure;BME280_temperature;BME280_humidity;BME280_pressure;Samples;Min_cycle;Max_cycle;Signal;HPM_P1;HPM_P2
2022/09/08 00:01:49;;;;;;;8.85;3.95;;;;;;;;;;5028887;28;20041;-60
2022/09/08 00:04:15;;;;;;;12.75;3.60;;;;;;;;;;5026874;28;20032;-60
2022/09/08 00:06:41;;;;;;;6.55;3.53;;;;;;;;;;5027962;28;20470;-60
2022/09/08 00:09:07;;;;;;;8.52;3.75;;;;;;;;;;5029891;28;20033;-60
2022/09/08 00:11:34;;;;;;;6.63;3.40;;;;;;;;;;5027340;28;20100;-61
2022/09/08 00:14:04;;;;;;;12.73;5.32;;;;;;;;;;5028595;28;20064;-60
2022/09/08 00:16:30;;;;;;;7.47;4.03;;;;;;;;;;5029086;28;20113;-60
2022/09/08 00:18:56;;;;;;;7.32;3.72;;;;;;;;;;5011562;28;20396;-60
2022/09/08 00:21:27;;;;;;;6.80;3.85;;;;;;;;;;5028176;28;20039;-60
2022/09/08 00:23:53;;;;;;;5.20;3.60;;;;;;;;;;5029571;28;20033;-61
2022/09/08 00:26:20;;;;;;;5.45;3.80;;;;;;;;;;5029946;28;20037;-60
2022/09/08 00:28:46;;;;;;;11.32;3.65;;;;;;;;;;5029920;28;20021;-60
2022/09/08 00:31:13;;;;;;;8.80;4.15;;;;;;;;;;5010816;28;20076;-61
2022/09/08 00:33:39;;;;;;;6.13;3.72;;;;;;;;;;5030211;28;20022;-60
2022/09/08 00:36:07;;;;;;;10.32;3.85;;;;;;;;;;5029964;28;20041;-59
2022/09/08 00:38:33;;;;;;;8.98;3.63;;;;;;;;;;5027635;28;20037;-60
2022/09/08 00:40:59;;;;;;;9.40;3.97;;;;;;;;;;5027897;28;20071;-60
2022/09/08 00:43:30;;;;;;;11.43;3.90;;;;;;;;;;5030307;28;20030;-60
2022/09/08 00:45:58;;;;;;;5.78;3.40;;;;;;;;;;5024812;28;20033;-60
2022/09/08 00:48:24;;;;;;;6.40;3.83;;;;;;;;;;5033772;28;20025;-60
2022/09/08 00:50:50;;;;;;;7.13;3.95;;;;;;;;;;5032186;28;20029;-60
2022/09/08 00:53:17;;;;;;;6.95;3.58;;;;;;;;;;5015146;28;20521;-60
2022/09/08 00:55:43;;;;;;;8.88;3.70;;;;;;;;;;5032642;28;20017;-60
2022/09/08 00:58:09;;;;;;;5.70;3.55;;;;;;;;;;5033246;28;20055;-60
2022/09/08 01:00:36;;;;;;;8.98;3.90;;;;;;;;;;5028227;28;20033;-60
2022/09/08 01:03:03;;;;;;;7.10;3.97;;;;;;;;;;5033532;28;20120;-61
2022/09/08 01:05:35;;;;;;;5.93;3.85;;;;;;;;;;5031673;28;20036;-61
2022/09/08 01:14:10;;;;;;;10.05;3.72;;;;;;;;;;5030014;28;20037;-61
2022/09/08 01:16:39;;;;;;;5.10;3.13;;;;;;;;;;5031810;28;20037;-61
2022/09/08 01:19:05;;;;;;;9.50;3.55;;;;;;;;;;5032679;28;20060;-61
2022/09/08 01:21:31;;;;;;;7.47;3.80;;;;;;;;;;5031161;28;20084;-61
2022/09/08 01:24:04;;;;;;;8.40;3.53;;;;;;;;;;5033125;28;20654;-61
2022/09/08 01:26:30;;;;;;;;;;;;;;;;;;5033123;28;20029;-61
2022/09/08 01:28:59;;;;;;;8.00;3.65;;;;;;;;;;5032044;28;19911;-61
2022/09/08 01:31:25;;;;;;;9.48;3.50;;;;;;;;;;5032085;28;20118;-61
2022/09/08 01:33:51;;;;;;;6.75;3.25;;;;;;;;;;5032312;28;20453;-61
2022/09/08 01:36:18;;;;;;;14.98;4.00;;;;;;;;;;5031552;28;20563;-61
2022/09/08 01:38:44;;;;;;;12.20;4.03;;;;;;;;;;5032418;28;20108;-61
2022/09/08 01:41:10;;;;;;;8.35;3.67;;;;;;;;;;5030561;28;20037;-62
2022/09/08 01:43:37;;;;;;;6.90;3.63;;;;;;;;;;5031663;28;20021;-61
2022/09/08 01:46:03;;;;;;;6.05;3.45;;;;;;;;;;5031276;28;20045;-61
2022/09/08 01:48:29;;;;;;;7.07;3.70;;;;;;;;;;5032036;28;20273;-61
2022/09/08 01:51:02;;;;;;;13.95;3.83;;;;;;;;;;5030285;28;20032;-61
2022/09/08 01:53:28;;;;;;;9.93;3.25;;;;;;;;;;5031711;28;20045;-61
2022/09/08 01:55:55;;;;;;;6.78;3.20;;;;;;;;;;5030464;28;20427;-61
2022/09/08 01:58:21;;;;;;;8.18;3.85;;;;;;;;;;5031853;28;20025;-61
2022/09/08 02:00:47;;;;;;;11.80;3.28;;;;;;;;;;5029866;28;20030;-61
2022/09/08 02:03:13;;;;;;;6.28;3.30;;;;;;;;;;5031724;28;20033;-61
2022/09/08 02:05:43;;;;;;;6.63;3.42;;;;;;;;;;5032054;28;20026;-60
2022/09/08 02:08:10;;;;;;;7.85;3.75;;;;;;;;;;5032581;28;20175;-61
2022/09/08 02:10:36;;;;;;;5.68;3.13;;;;;;;;;;5026449;28;20025;-60
2022/09/08 02:13:03;;;;;;;6.38;3.40;;;;;;;;;;5030495;28;20025;-61
2022/09/08 02:15:30;;;;;;;9.63;3.25;;;;;;;;;;5029177;28;20018;-61
2022/09/08 02:17:57;;;;;;;6.68;3.70;;;;;;;;;;5026341;28;20164;-61
2022/09/08 02:20:23;;;;;;;9.57;3.42;;;;;;;;;;5026670;28;20026;-61
2022/09/08 02:22:49;;;;;;;6.85;3.30;;;;;;;;;;5029997;28;20038;-61
2022/09/08 02:25:15;;;;;;;12.00;3.60;;;;;;;;;;5031929;28;20627;-60
2022/09/08 02:27:41;;;;;;;5.85;3.28;;;;;;;;;;5030659;28;20030;-61
2022/09/08 02:30:07;;;;;;;8.18;3.17;;;;;;;;;;5030948;28;20025;-60
2022/09/08 02:32:34;;;;;;;5.65;3.38;;;;;;;;;;5029182;28;20029;-60
2022/09/08 02:35:00;;;;;;;7.53;3.17;;;;;;;;;;5031694;28;20087;-61
2022/09/08 02:37:26;;;;;;;5.47;3.08;;;;;;;;;;5031228;28;20029;-61
2022/09/08 02:39:52;;;;;;;7.50;3.17;;;;;;;;;;5030155;28;20060;-61
2022/09/08 02:42:18;;;;;;;8.52;3.28;;;;;;;;;;5030801;28;20029;-61
2022/09/08 02:44:44;;;;;;;6.95;3.08;;;;;;;;;;5028218;28;20472;-61
2022/09/08 02:47:10;;;;;;;8.20;3.42;;;;;;;;;;5031424;28;20033;-61
2022/09/08 02:49:36;;;;;;;8.82;3.30;;;;;;;;;;5030982;28;20473;-61
2022/09/08 02:52:03;;;;;;;8.35;3.15;;;;;;;;;;5030597;28;20041;-60
2022/09/08 02:54:28;;;;;;;7.40;3.53;;;;;;;;;;5029107;28;20033;-61
2022/09/08 02:56:55;;;;;;;12.73;2.97;;;;;;;;;;5031740;28;20036;-61
2022/09/08 02:59:21;;;;;;;9.88;3.35;;;;;;;;;;5029816;28;20159;-61
2022/09/08 03:01:47;;;;;;;7.35;3.03;;;;;;;;;;5029486;28;20038;-60
2022/09/08 03:04:13;;;;;;;11.10;3.50;;;;;;;;;;5030943;28;20045;-61
2022/09/08 03:06:39;;;;;;;5.93;2.85;;;;;;;;;;5030640;28;20544;-60
2022/09/08 03:09:06;;;;;;;6.72;3.30;;;;;;;;;;5030592;28;20036;-61
2022/09/08 03:11:33;;;;;;;5.32;2.95;;;;;;;;;;5027900;28;20484;-60
2022/09/08 03:13:59;;;;;;;8.95;2.92;;;;;;;;;;5030090;28;20061;-61
2022/09/08 03:16:26;;;;;;;8.95;2.85;;;;;;;;;;5030680;28;20137;-61
2022/09/08 03:18:53;;;;;;;6.95;2.90;;;;;;;;;;5029821;28;20077;-61
2022/09/08 03:21:19;;;;;;;9.73;3.40;;;;;;;;;;5030900;28;20026;-61
2022/09/08 03:23:44;;;;;;;12.68;3.20;;;;;;;;;;5029752;28;20495;-60
2022/09/08 03:26:12;;;;;;;8.07;3.70;;;;;;;;;;5029919;28;20498;-60
2022/09/08 03:28:38;;;;;;;5.47;2.90;;;;;;;;;;5031000;28;20026;-61
2022/09/08 03:31:08;;;;;;;9.80;3.17;;;;;;;;;;5028953;28;20033;-61
2022/09/08 03:33:34;;;;;;;12.45;2.83;;;;;;;;;;5031081;28;20021;-60
2022/09/08 03:36:01;;;;;;;9.75;3.30;;;;;;;;;;5028564;28;20428;-60
2022/09/08 03:38:27;;;;;;;8.98;3.33;;;;;;;;;;5029602;28;20452;-61
2022/09/08 03:40:53;;;;;;;8.10;2.75;;;;;;;;;;5029343;28;20109;-61
2022/09/08 03:43:19;;;;;;;7.00;2.95;;;;;;;;;;5028311;28;20063;-61
2022/09/08 03:45:46;;;;;;;5.65;2.95;;;;;;;;;;5029653;28;20079;-61
2022/09/08 03:48:12;;;;;;;5.40;2.92;;;;;;;;;;5030572;28;20393;-61
2022/09/08 03:50:39;;;;;;;5.38;2.85;;;;;;;;;;5029539;28;20033;-61
2022/09/08 03:53:05;;;;;;;6.10;2.65;;;;;;;;;;5029510;28;20481;-60
2022/09/08 03:55:31;;;;;;;5.57;2.60;;;;;;;;;;5029866;28;20047;-60
2022/09/08 03:57:58;;;;;;;6.80;2.60;;;;;;;;;;5028589;28;20029;-60
2022/09/08 04:00:24;;;;;;;6.95;2.83;;;;;;;;;;5029215;28;20026;-60
2022/09/08 04:02:50;;;;;;;7.85;2.83;;;;;;;;;;5027868;28;20637;-61
2022/09/08 04:05:17;;;;;;;5.63;2.95;;;;;;;;;;5026947;28;20030;-60
2022/09/08 04:07:43;;;;;;;5.85;3.00;;;;;;;;;;5030880;28;20125;-60
2022/09/08 04:10:11;;;;;;;4.60;2.95;;;;;;;;;;5029374;28;20069;-61
2022/09/08 04:12:38;;;;;;;8.07;2.85;;;;;;;;;;5028928;28;20740;-60
2022/09/08 04:15:04;;;;;;;9.82;2.95;;;;;;;;;;5025290;28;20034;-60
2022/09/08 04:17:30;;;;;;;5.68;3.10;;;;;;;;;;5028050;28;20049;-61
2022/09/08 04:19:56;;;;;;;9.05;3.38;;;;;;;;;;5026661;28;20473;-60
2022/09/08 04:22:22;;;;;;;11.65;3.22;;;;;;;;;;5021411;28;20386;-61
2022/09/08 04:24:49;;;;;;;6.65;2.83;;;;;;;;;;5033654;28;20029;-60
2022/09/08 04:27:15;;;;;;;5.80;2.50;;;;;;;;;;5034312;28;20384;-60
2022/09/08 04:29:41;;;;;;;7.47;3.00;;;;;;;;;;5015431;28;20026;-60
2022/09/08 04:32:07;;;;;;;11.48;3.35;;;;;;;;;;5031766;28;20491;-61
2022/09/08 04:34:33;;;;;;;5.55;2.70;;;;;;;;;;5032981;28;20025;-61
2022/09/08 04:36:59;;;;;;;6.47;3.05;;;;;;;;;;5029557;28;20431;-61
2022/09/08 04:39:25;;;;;;;8.48;3.10;;;;;;;;;;5034119;28;20021;-61
2022/09/08 04:41:51;;;;;;;8.20;3.00;;;;;;;;;;5027666;28;20356;-61
2022/09/08 04:44:17;;;;;;;8.10;3.00;;;;;;;;;;5033488;28;20025;-61
2022/09/08 04:46:43;;;;;;;8.65;3.35;;;;;;;;;;5031899;28;20538;-60
2022/09/08 04:49:09;;;;;;;6.35;3.10;;;;;;;;;;5032659;28;20370;-61
2022/09/08 04:51:35;;;;;;;9.13;2.70;;;;;;;;;;5030762;28;20033;-61
2022/09/08 04:54:01;;;;;;;7.38;2.78;;;;;;;;;;5031080;28;20040;-60
2022/09/08 04:56:29;;;;;;;8.82;3.00;;;;;;;;;;5032321;28;20026;-61
2022/09/08 04:58:55;;;;;;;5.70;2.83;;;;;;;;;;5030812;28;20578;-61
2022/09/08 05:01:23;;;;;;;7.95;3.45;;;;;;;;;;5032611;28;20030;-60
2022/09/08 05:03:54;;;;;;;7.55;3.05;;;;;;;;;;5033367;28;20517;-61
2022/09/08 05:06:21;;;;;;;11.80;3.25;;;;;;;;;;5026432;28;20048;-60
2022/09/08 05:08:48;;;;;;;11.93;3.25;;;;;;;;;;5022778;28;20021;-60
2022/09/08 05:11:14;;;;;;;8.90;3.10;;;;;;;;;;5028488;28;20033;-61
2022/09/08 05:13:40;;;;;;;9.07;3.38;;;;;;;;;;5031895;28;20033;-61
2022/09/08 05:16:07;;;;;;;6.13;3.05;;;;;;;;;;5024554;28;20036;-60
2022/09/08 05:18:34;;;;;;;6.68;2.88;;;;;;;;;;5033565;28;20049;-60
2022/09/08 05:21:00;;;;;;;9.52;3.05;;;;;;;;;;5030752;28;20033;-61
2022/09/08 05:23:26;;;;;;;5.82;2.95;;;;;;;;;;5033673;28;20044;-61
2022/09/08 05:25:56;;;;;;;6.55;2.58;;;;;;;;;;5033439;28;20030;-61
2022/09/08 05:28:22;;;;;;;8.50;3.33;;;;;;;;;;5033628;28;20114;-61
2022/09/08 05:30:48;;;;;;;6.15;3.30;;;;;;;;;;5032439;28;20484;-61
2022/09/08 05:33:14;;;;;;;6.30;3.17;;;;;;;;;;5030429;28;20079;-60
2022/09/08 05:35:40;;;;;;;5.88;2.85;;;;;;;;;;5032993;28;20033;-60
2022/09/08 05:38:06;;;;;;;11.32;3.58;;;;;;;;;;5033289;28;20026;-60
2022/09/08 05:40:36;;;;;;;8.95;3.15;;;;;;;;;;5032738;28;20130;-61
2022/09/08 05:43:02;;;;;;;7.65;3.03;;;;;;;;;;5033341;28;20564;-61
2022/09/08 05:45:28;;;;;;;9.63;2.90;;;;;;;;;;5032158;28;20037;-61
2022/09/08 05:47:54;;;;;;;7.45;3.30;;;;;;;;;;5022283;28;20041;-60
2022/09/08 05:50:20;;;;;;;10.13;3.08;;;;;;;;;;5028751;28;20033;-61
2022/09/08 05:52:46;;;;;;;7.95;2.95;;;;;;;;;;5033060;28;20053;-61
2022/09/08 05:55:13;;;;;;;10.25;3.13;;;;;;;;;;5029542;28;20044;-60
2022/09/08 05:57:39;;;;;;;6.70;3.13;;;;;;;;;;5032627;28;20565;-60
2022/09/08 06:00:06;;;;;;;12.75;3.53;;;;;;;;;;5032363;28;20084;-60
2022/09/08 06:02:32;;;;;;;12.20;3.17;;;;;;;;;;5029840;28;20040;-61
2022/09/08 06:04:58;;;;;;;7.95;3.50;;;;;;;;;;5029662;28;20026;-61
2022/09/08 06:07:25;;;;;;;8.93;3.00;;;;;;;;;;5031185;28;20056;-61
2022/09/08 06:09:51;;;;;;;13.27;3.70;;;;;;;;;;5032152;28;20026;-60
2022/09/08 06:12:17;;;;;;;16.52;3.95;;;;;;;;;;5032551;28;20032;-61
2022/09/08 06:14:43;;;;;;;15.15;3.85;;;;;;;;;;5032504;28;20116;-61
2022/09/08 06:17:09;;;;;;;9.75;3.38;;;;;;;;;;5029970;28;20485;-61
2022/09/08 06:19:35;;;;;;;10.50;3.78;;;;;;;;;;5030580;28;20128;-61
2022/09/08 06:22:01;;;;;;;7.75;3.65;;;;;;;;;;5032000;28;20117;-61
2022/09/08 06:24:27;;;;;;;8.35;2.97;;;;;;;;;;5031824;28;20481;-61
2022/09/08 06:27:06;;;;;;;7.05;3.53;;;;;;;;;;5031996;28;20431;-61
2022/09/08 06:29:32;;;;;;;12.15;3.78;;;;;;;;;;5032375;28;20026;-61
2022/09/08 06:32:01;;;;;;;6.45;3.25;;;;;;;;;;5031797;28;20083;-61
2022/09/08 06:34:29;;;;;;;9.43;3.35;;;;;;;;;;5029536;28;20033;-61
2022/09/08 06:37:05;;;;;;;6.65;3.60;;;;;;;;;;5031398;28;20029;-61
2022/09/08 06:39:33;;;;;;;8.10;3.33;;;;;;;;;;5030677;28;20037;-61
2022/09/08 06:42:04;;;;;;;9.15;3.92;;;;;;;;;;5030490;28;20029;-60
2022/09/08 06:44:33;;;;;;;7.90;3.33;;;;;;;;;;5029960;28;20032;-60
2022/09/08 06:46:59;;;;;;;7.10;3.63;;;;;;;;;;5032725;28;20054;-61
2022/09/08 06:49:26;;;;;;;12.02;4.15;;;;;;;;;;5031569;28;20022;-60
2022/09/08 06:51:59;;;;;;;10.90;3.70;;;;;;;;;;5031626;28;20030;-61
2022/09/08 06:54:40;;;;;;;10.25;3.80;;;;;;;;;;5031997;28;20084;-61
2022/09/08 06:57:21;;;;;;;9.68;3.67;;;;;;;;;;5031678;28;20473;-61
2022/09/08 07:00:08;;;;;;;11.32;4.13;;;;;;;;;;5023846;28;20036;-61
2022/09/08 07:03:12;;;;;;;6.90;3.72;;;;;;;;;;5031793;28;20029;-61
2022/09/08 07:05:45;;;;;;;9.07;3.47;;;;;;;;;;4931879;29;20569;-60
2022/09/08 07:08:25;;;;;;;9.65;4.43;;;;;;;;;;4932129;29;20027;-61
2022/09/08 07:10:54;;;;;;;15.82;4.97;;;;;;;;;;4990896;28;20040;-61
2022/09/08 07:13:40;;;;;;;9.00;3.53;;;;;;;;;;5029253;28;20117;-60
2022/09/08 07:16:25;;;;;;;11.45;3.80;;;;;;;;;;5024706;28;20033;-61
2022/09/08 07:19:12;;;;;;;8.63;3.88;;;;;;;;;;5022647;28;20516;-60
2022/09/08 07:21:41;;;;;;;5.78;3.25;;;;;;;;;;5031052;28;20076;-61
2022/09/08 07:24:10;;;;;;;12.05;3.72;;;;;;;;;;5030222;28;20163;-61
2022/09/08 07:26:38;;;;;;;8.93;3.42;;;;;;;;;;5030274;28;20100;-60
2022/09/08 07:29:19;;;;;;;18.50;3.80;;;;;;;;;;5030648;28;20075;-60
2022/09/08 07:31:48;;;;;;;8.73;3.78;;;;;;;;;;5029234;28;20037;-61
2022/09/08 07:34:20;;;;;;;11.40;3.65;;;;;;;;;;5029753;28;20026;-61
2022/09/08 07:36:50;;;;;;;12.82;4.32;;;;;;;;;;5031119;28;20449;-61
2022/09/08 07:39:24;;;;;;;9.13;3.90;;;;;;;;;;5028945;28;20366;-61
2022/09/08 07:41:55;;;;;;;10.05;3.97;;;;;;;;;;5030774;28;20026;-61
2022/09/08 07:44:21;;;;;;;10.57;3.97;;;;;;;;;;5029661;28;20076;-61
2022/09/08 07:47:06;;;;;;;11.05;4.20;;;;;;;;;;5025130;28;20021;-60
2022/09/08 07:49:36;;;;;;;8.10;3.47;;;;;;;;;;5030792;28;20026;-61
2022/09/08 07:52:22;;;;;;;10.70;4.57;;;;;;;;;;5030553;28;20037;-61
2022/09/08 07:54:56;;;;;;;10.07;3.90;;;;;;;;;;5020006;28;20049;-61
2022/09/08 07:57:31;;;;;;;9.73;4.32;;;;;;;;;;5008170;28;20029;-61
2022/09/08 08:00:03;;;;;;;11.30;4.28;;;;;;;;;;5023540;28;20037;-61
2022/09/08 08:02:37;;;;;;;9.93;3.80;;;;;;;;;;5030398;28;20127;-61
2022/09/08 08:05:26;;;;;;;9.80;4.15;;;;;;;;;;5034671;28;20087;-61
2022/09/08 08:07:58;;;;;;;6.05;3.92;;;;;;;;;;5022494;28;20030;-61
2022/09/08 08:10:26;;;;;;;9.37;3.93;;;;;;;;;;5033852;28;20029;-61
2022/09/08 08:13:04;;;;;;;9.00;3.90;;;;;;;;;;5032999;28;20049;-61
2022/09/08 08:15:46;;;;;;;11.93;4.32;;;;;;;;;;5033914;28;20038;-61
2022/09/08 08:18:26;;;;;;;7.70;3.78;;;;;;;;;;5033436;28;20496;-61
2022/09/08 08:20:56;;;;;;;7.88;4.20;;;;;;;;;;5033764;28;20548;-61
2022/09/08 08:23:28;;;;;;;9.95;3.83;;;;;;;;;;5032370;28;20032;-61
2022/09/08 08:26:00;;;;;;;7.05;4.00;;;;;;;;;;5034414;28;20026;-61
2022/09/08 08:28:26;;;;;;;11.15;3.65;;;;;;;;;;5033616;28;20112;-61
2022/09/08 08:31:13;;;;;;;16.25;3.92;;;;;;;;;;5029476;28;20033;-61
2022/09/08 08:33:48;;;;;;;11.13;4.00;;;;;;;;;;5032924;28;20030;-61
2022/09/08 08:36:15;;;;;;;9.55;4.00;;;;;;;;;;5033485;28;20427;-61
2022/09/08 08:38:42;;;;;;;10.07;3.92;;;;;;;;;;5034223;28;20018;-61
2022/09/08 08:41:27;;;;;;;7.15;3.65;;;;;;;;;;5025510;28;20026;-61
2022/09/08 08:43:52;;;;;;;9.85;4.25;;;;;;;;;;5029216;28;20115;-61
2022/09/08 08:46:39;;;;;;;14.35;4.68;;;;;;;;;;5034435;28;20033;-61
2022/09/08 08:49:28;;;;;;;7.80;3.95;;;;;;;;;;5034975;28;20155;-61
2022/09/08 08:51:57;;;;;;;8.82;4.45;;;;;;;;;;5033615;28;20038;-61
2022/09/08 08:54:47;;;;;;;15.50;5.50;;;;;;;;;;5033215;28;20048;-62
2022/09/08 08:57:13;;;;;;;11.82;4.38;;;;;;;;;;5025661;28;20499;-62
2022/09/08 08:59:51;;;;;;;13.80;4.88;;;;;;;;;;5032938;28;20036;-62
2022/09/08 09:02:46;;;;;;;17.95;5.30;;;;;;;;;;5033807;28;20507;-62
2022/09/08 09:05:24;;;;;;;14.48;5.07;;;;;;;;;;4959325;28;20073;-62
2022/09/08 09:08:03;;;;;;;11.90;4.82;;;;;;;;;;5027231;28;20527;-61
2022/09/08 09:10:44;;;;;;;12.10;5.28;;;;;;;;;;5012607;28;20028;-62
2022/09/08 09:13:21;;;;;;;10.82;4.35;;;;;;;;;;5030250;28;20033;-60
2022/09/08 09:16:03;;;;;;;16.23;5.90;;;;;;;;;;5020873;28;20038;-61
2022/09/08 09:18:42;;;;;;;13.05;5.18;;;;;;;;;;5033278;28;20574;-61
2022/09/08 09:21:24;;;;;;;15.25;4.97;;;;;;;;;;5030004;28;20033;-61
2022/09/08 09:23:59;;;;;;;12.20;5.47;;;;;;;;;;5031295;28;20033;-61
2022/09/08 09:26:26;;;;;;;9.95;5.10;;;;;;;;;;5032589;28;20030;-61
2022/09/08 09:28:54;;;;;;;12.00;5.65;;;;;;;;;;5031458;28;20032;-61
2022/09/08 09:31:38;;;;;;;18.80;6.50;;;;;;;;;;5021446;28;20022;-61
2022/09/08 09:34:10;;;;;;;16.23;6.13;;;;;;;;;;5027371;28;20029;-61
2022/09/08 09:36:48;;;;;;;10.88;5.75;;;;;;;;;;5032397;28;20045;-62
2022/09/08 09:39:24;;;;;;;11.27;5.07;;;;;;;;;;5021766;28;20529;-62
2022/09/08 09:41:51;;;;;;;13.88;5.95;;;;;;;;;;5025749;28;20049;-62
2022/09/08 09:44:37;;;;;;;14.10;5.65;;;;;;;;;;5030632;28;20029;-62
2022/09/08 09:47:03;;;;;;;13.55;5.93;;;;;;;;;;5026979;28;20037;-62
2022/09/08 09:49:48;;;;;;;9.20;5.65;;;;;;;;;;5020674;28;20029;-61
2022/09/08 09:52:40;;;;;;;15.00;5.90;;;;;;;;;;5032907;28;20025;-62
2022/09/08 09:55:09;;;;;;;17.33;6.18;;;;;;;;;;5027637;28;20045;-62
2022/09/08 09:57:58;;;;;;;14.48;6.57;;;;;;;;;;5032634;28;20468;-62
2022/09/08 10:00:25;;;;;;;14.48;6.53;;;;;;;;;;5032127;28;20030;-62
2022/09/08 10:03:00;;;;;;;16.92;7.22;;;;;;;;;;5032665;28;20105;-62
2022/09/08 10:05:26;;;;;;;9.82;6.10;;;;;;;;;;5032586;28;20029;-62
2022/09/08 10:08:31;;;;;;;14.50;6.82;;;;;;;;;;5026434;28;20028;-61
2022/09/08 10:11:15;;;;;;;13.23;6.43;;;;;;;;;;4966399;28;20507;-62
2022/09/08 10:13:59;;;;;;;12.52;6.65;;;;;;;;;;4952029;28;20034;-62
2022/09/08 10:16:43;;;;;;;19.25;7.60;;;;;;;;;;5007623;28;20139;-62
2022/09/08 10:19:12;;;;;;;14.30;7.82;;;;;;;;;;5028786;28;20168;-62
2022/09/08 10:21:49;;;;;;;14.43;6.25;;;;;;;;;;5027647;28;20125;-62
2022/09/08 10:24:33;;;;;;;13.15;7.00;;;;;;;;;;5030618;28;20579;-62
2022/09/08 10:27:02;;;;;;;17.88;7.47;;;;;;;;;;5027614;28;20539;-63
2022/09/08 10:29:34;;;;;;;15.95;7.03;;;;;;;;;;5024595;28;20037;-62
2022/09/08 10:32:16;;;;;;;14.38;6.88;;;;;;;;;;5023363;28;20017;-62
2022/09/08 10:35:03;;;;;;;15.35;7.25;;;;;;;;;;5031077;28;20033;-62
2022/09/08 10:37:51;;;;;;;19.48;7.18;;;;;;;;;;5030846;28;20029;-62
2022/09/08 10:40:36;;;;;;;14.10;7.30;;;;;;;;;;5025555;28;20033;-62
2022/09/08 10:43:14;;;;;;;13.57;7.47;;;;;;;;;;5029179;28;20040;-62
2022/09/08 10:45:59;;;;;;;17.77;7.47;;;;;;;;;;5024192;28;20017;-62
2022/09/08 10:48:40;;;;;;;12.30;7.07;;;;;;;;;;5023917;28;20104;-62
2022/09/08 10:51:16;;;;;;;13.27;7.38;;;;;;;;;;5029461;28;20432;-62
2022/09/08 10:53:58;;;;;;;16.77;7.53;;;;;;;;;;5031532;28;20029;-62
2022/09/08 10:56:26;;;;;;;14.50;7.33;;;;;;;;;;5031617;28;20026;-62
2022/09/08 10:59:10;;;;;;;16.48;8.07;;;;;;;;;;5026535;28;20033;-62
2022/09/08 11:01:42;;;;;;;13.60;7.88;;;;;;;;;;5030534;28;20057;-62
2022/09/08 11:04:08;;;;;;;16.25;7.18;;;;;;;;;;5011999;28;20025;-62
2022/09/08 11:06:49;;;;;;;15.82;7.80;;;;;;;;;;5027851;28;20485;-62
2022/09/08 11:09:34;;;;;;;17.88;7.60;;;;;;;;;;5031367;28;20057;-62
2022/09/08 11:12:20;;;;;;;14.23;7.03;;;;;;;;;;5031036;28;20033;-62
2022/09/08 11:15:04;;;;;;;13.05;6.65;;;;;;;;;;5024763;28;20143;-62
2022/09/08 11:17:38;;;;;;;13.73;8.13;;;;;;;;;;5031101;28;20088;-62
2022/09/08 11:20:12;;;;;;;15.60;8.38;;;;;;;;;;5029170;28;20087;-62
2022/09/08 11:22:38;;;;;;;;;;;;;;;;;;5030500;28;20091;-63
2022/09/08 11:25:14;;;;;;;15.40;8.65;;;;;;;;;;5030631;28;20008;-62
2022/09/08 11:27:40;;;;;;;16.95;8.70;;;;;;;;;;5029456;28;20044;-62
2022/09/08 11:30:12;;;;;;;15.10;8.95;;;;;;;;;;5030887;28;20021;-62
2022/09/08 11:32:49;;;;;;;17.58;8.15;;;;;;;;;;5028687;28;20484;-62
2022/09/08 11:35:25;;;;;;;14.65;7.88;;;;;;;;;;5029977;28;20472;-61
2022/09/08 11:38:10;;;;;;;15.80;9.00;;;;;;;;;;5031233;28;20052;-61
2022/09/08 11:40:55;;;;;;;12.57;8.23;;;;;;;;;;5030604;28;20030;-61
2022/09/08 11:43:39;;;;;;;14.80;8.52;;;;;;;;;;5031085;28;20029;-61
2022/09/08 11:46:24;;;;;;;16.45;7.68;;;;;;;;;;5030892;28;20512;-61
2022/09/08 11:49:11;;;;;;;16.90;8.80;;;;;;;;;;5026155;28;20562;-61
2022/09/08 11:51:55;;;;;;;12.95;8.95;;;;;;;;;;5026040;28;20481;-61
2022/09/08 11:54:37;;;;;;;14.93;8.05;;;;;;;;;;5028278;28;20037;-61
2022/09/08 11:57:21;;;;;;;14.23;7.72;;;;;;;;;;5030718;28;20040;-61
2022/09/08 12:00:05;;;;;;;13.90;8.93;;;;;;;;;;5030549;28;20095;-61
2022/09/08 12:02:49;;;;;;;13.48;8.75;;;;;;;;;;5029674;28;20037;-60
2022/09/08 12:05:26;;;;;;;13.98;8.35;;;;;;;;;;5029873;28;20017;-61
2022/09/08 12:08:11;;;;;;;20.90;9.18;;;;;;;;;;5029363;28;20033;-61
2022/09/08 12:10:37;;;;;;;13.27;9.18;;;;;;;;;;5029303;28;20033;-60
2022/09/08 12:13:23;;;;;;;14.65;9.52;;;;;;;;;;5027359;28;20046;-60
2022/09/08 12:16:08;;;;;;;18.48;8.93;;;;;;;;;;5026568;28;20044;-60
2022/09/08 12:18:51;;;;;;;20.92;10.80;;;;;;;;;;5023693;28;20041;-61
2022/09/08 12:21:43;;;;;;;14.98;6.32;;;;;;;;;;5006912;28;20493;-59
2022/09/08 12:24:09;;;;;;;16.08;8.98;;;;;;;;;;5027123;28;20036;-59
2022/09/08 12:26:56;;;;;;;17.45;10.18;;;;;;;;;;5024368;28;20481;-59
2022/09/08 12:29:22;;;;;;;16.10;10.20;;;;;;;;;;5005758;28;20079;-62
2022/09/08 12:32:13;;;;;;;17.27;9.95;;;;;;;;;;5026637;28;20033;-60
2022/09/08 12:35:12;;;;;;;17.63;10.23;;;;;;;;;;5030071;28;20393;-61
2022/09/08 12:37:38;;;;;;;17.10;10.15;;;;;;;;;;5030162;28;20045;-61
2022/09/08 12:40:07;;;;;;;22.15;11.15;;;;;;;;;;5026656;28;20033;-61
2022/09/08 12:42:42;;;;;;;13.95;10.73;;;;;;;;;;5025749;28;20488;-62
2022/09/08 12:45:21;;;;;;;23.63;10.23;;;;;;;;;;5032633;28;20055;-61
2022/09/08 12:47:53;;;;;;;15.43;10.05;;;;;;;;;;5032224;28;20626;-61
2022/09/08 12:50:32;;;;;;;17.58;10.63;;;;;;;;;;5031119;28;20104;-61
2022/09/08 12:53:00;;;;;;;15.45;9.95;;;;;;;;;;5032672;28;20036;-61
2022/09/08 12:55:56;;;;;;;20.25;9.95;;;;;;;;;;5034079;28;20514;-61
2022/09/08 12:58:23;;;;;;;17.55;10.63;;;;;;;;;;5011170;28;20048;-61
2022/09/08 13:00:57;;;;;;;21.25;11.48;;;;;;;;;;5032262;28;20029;-61
2022/09/08 13:03:34;;;;;;;14.60;10.38;;;;;;;;;;5030757;28;20056;-61
2022/09/08 13:06:19;;;;;;;13.48;9.45;;;;;;;;;;5033146;28;20021;-61
2022/09/08 13:08:51;;;;;;;18.25;10.45;;;;;;;;;;5024685;28;20856;-61
2022/09/08 13:11:20;;;;;;;21.77;11.25;;;;;;;;;;5031174;28;20392;-61
2022/09/08 13:13:46;;;;;;;16.35;12.15;;;;;;;;;;5033146;28;20434;-61
2022/09/08 13:16:21;;;;;;;16.20;11.10;;;;;;;;;;5033440;28;20052;-61
2022/09/08 13:19:06;;;;;;;13.32;10.10;;;;;;;;;;5024157;28;20053;-61
2022/09/08 13:21:41;;;;;;;18.85;11.52;;;;;;;;;;5030739;28;20033;-61
2022/09/08 13:24:11;;;;;;;18.15;11.40;;;;;;;;;;5033962;28;20417;-61
2022/09/08 13:26:45;;;;;;;21.27;11.30;;;;;;;;;;5031810;28;20029;-61
2022/09/08 13:29:17;;;;;;;14.63;10.02;;;;;;;;;;5032623;28;20092;-60
2022/09/08 13:31:43;;;;;;;24.10;11.48;;;;;;;;;;5022063;28;20037;-61
2022/09/08 13:34:14;;;;;;;18.10;11.80;;;;;;;;;;5033225;28;20029;-61
2022/09/08 13:36:50;;;;;;;19.02;12.50;;;;;;;;;;5033397;28;20160;-61
2022/09/08 13:39:45;;;;;;;20.00;11.63;;;;;;;;;;5033280;28;20121;-61
2022/09/08 13:42:29;;;;;;;14.10;10.38;;;;;;;;;;5001851;28;20390;-61
2022/09/08 13:45:15;;;;;;;17.90;12.00;;;;;;;;;;5032856;28;20021;-60
2022/09/08 13:48:06;;;;;;;18.25;12.75;;;;;;;;;;5027858;28;20404;-60
2022/09/08 13:50:44;;;;;;;19.17;12.00;;;;;;;;;;5026538;28;20025;-61
2022/09/08 13:53:13;;;;;;;22.33;14.02;;;;;;;;;;5024668;28;20029;-61
2022/09/08 13:55:55;;;;;;;26.02;13.02;;;;;;;;;;5029316;28;20497;-60
2022/09/08 13:58:36;;;;;;;21.40;13.98;;;;;;;;;;5032785;28;20030;-61
2022/09/08 14:01:11;;;;;;;21.10;12.63;;;;;;;;;;5028916;28;20587;-61
2022/09/08 14:03:54;;;;;;;21.58;14.15;;;;;;;;;;5032438;28;20484;-61
2022/09/08 14:06:20;;;;;;;20.23;13.90;;;;;;;;;;5032884;28;20021;-61
2022/09/08 14:08:53;;;;;;;20.52;14.88;;;;;;;;;;5031786;28;20510;-61
2022/09/08 14:11:29;;;;;;;20.23;13.13;;;;;;;;;;5029910;28;20737;-61
2022/09/08 14:14:14;;;;;;;18.63;12.80;;;;;;;;;;5026727;28;20052;-61
2022/09/08 14:16:40;;;;;;;24.05;13.70;;;;;;;;;;5030748;28;20095;-61
2022/09/08 14:19:14;;;;;;;20.92;14.02;;;;;;;;;;5014157;28;20040;-61
2022/09/08 14:21:48;;;;;;;23.52;15.30;;;;;;;;;;5026009;28;20045;-61
2022/09/08 14:24:54;;;;;;;22.58;13.48;;;;;;;;;;5030772;28;20032;-61
2022/09/08 14:27:24;;;;;;;20.10;13.90;;;;;;;;;;4945786;28;20050;-61
2022/09/08 14:29:54;;;;;;;23.95;15.52;;;;;;;;;;4966337;28;20051;-61
2022/09/08 14:32:36;;;;;;;23.85;15.77;;;;;;;;;;5000923;28;20055;-61
2022/09/08 14:35:18;;;;;;;26.02;16.70;;;;;;;;;;5032287;28;20547;-62
2022/09/08 14:38:02;;;;;;;19.23;14.07;;;;;;;;;;5025130;28;20086;-61
2022/09/08 14:40:48;;;;;;;27.27;17.27;;;;;;;;;;5026802;28;20123;-61
2022/09/08 14:43:31;;;;;;;23.98;15.80;;;;;;;;;;5024993;28;20501;-62
2022/09/08 14:46:13;;;;;;;24.25;15.77;;;;;;;;;;5025382;28;20030;-62
2022/09/08 14:49:00;;;;;;;25.13;16.98;;;;;;;;;;5026824;28;20025;-62
2022/09/08 14:51:37;;;;;;;23.05;16.45;;;;;;;;;;5027038;28;20091;-62
2022/09/08 14:54:27;;;;;;;28.33;17.70;;;;;;;;;;5019131;28;20041;-62
2022/09/08 14:57:08;;;;;;;27.48;18.95;;;;;;;;;;5013174;28;20037;-61
2022/09/08 14:59:39;;;;;;;22.60;17.13;;;;;;;;;;5025851;28;20029;-62
2022/09/08 15:02:22;;;;;;;24.30;18.55;;;;;;;;;;5029064;28;20032;-62
2022/09/08 15:04:49;;;;;;;24.80;16.88;;;;;;;;;;5024020;28;20033;-62
2022/09/08 15:07:19;;;;;;;24.65;17.95;;;;;;;;;;5023543;28;20342;-62
2022/09/08 15:10:04;;;;;;;24.23;17.55;;;;;;;;;;5025949;28;20026;-61
2022/09/08 15:12:59;;;;;;;24.65;16.92;;;;;;;;;;5024753;28;20121;-62